WetterOnline ( http://www.wetteronline.de )

Wetter aktuell Tuttlingen

Aktuelles Wetter: Messstetten (900m)

6-stündlich | Neueste Meldungen
Ortszeit Temperatur Wetter
Sa, 19.01. 19:00 -8.2° C bedeckt
Sa, 19.01. 13:00 -6.7° C bedeckt
Sa, 19.01. 7:00 -7.6° C bedeckt
Sa, 19.01. 1:00 -6.4° C bewölkt
Fr, 18.01. 19:00 -6.7° C bedeckt
Fr, 18.01. 13:00 -1.1° C bedeckt
Fr, 18.01. 7:00 -5.0° C bewölkt
Fr, 18.01. 1:00 -3.2° C Schneefall
Ortszeit Temperatur Wetter
Sa, 19.01. 21:30 -7.7° C Nebel
Sa, 19.01. 21:20 -7.7° C Nebel
Sa, 19.01. 21:10 -7.7° C Nebel
Sa, 19.01. 21:00 -7.8° C Nebel
Sa, 19.01. 20:50 -7.8° C Nebel
Sa, 19.01. 20:40 -8.9° C Nebel
Sa, 19.01. 20:30 -12.3° C Nebel
Sa, 19.01. 20:00 -11.8° C Nebel
Sa, 19.01. 19:30 -11.8° C Nebel
Sa, 19.01. 19:00 -8.2° C bedeckt
Sa, 19.01. 18:30 -8.3° C bedeckt
Ortszeit Relative Feuchte Sichtweite
Sa, 19.01. 19:00 95% 3.5 km
Sa, 19.01. 13:00 88% 9 km
Sa, 19.01. 7:00 95% 7 km
Sa, 19.01. 1:00 93% 9 km
Fr, 18.01. 19:00 89% 22 km
Fr, 18.01. 13:00 70% 35 km
Fr, 18.01. 7:00 91% 30 km
Fr, 18.01. 1:00 87% 60 km
Ortszeit Relative Feuchte Sichtweite
Sa, 19.01. 21:30 97% 0.3 km
Sa, 19.01. 21:20 97% -
Sa, 19.01. 21:10 96% -
Sa, 19.01. 21:00 98% 0.7 km
Sa, 19.01. 20:50 98% -
Sa, 19.01. 20:40 99% -
Sa, 19.01. 20:30 93% 0.3 km
Sa, 19.01. 20:00 95% 0.2 km
Sa, 19.01. 19:30 92% 0.4 km
Sa, 19.01. 19:00 95% 3.5 km
Sa, 19.01. 18:30 96% 5.0 km
Ortszeit Niederschlagsmenge Niederschlagsart
Sa, 19.01. 19:00 0.0 l/m2 in 12 Std. -
Sa, 19.01. 13:00 0.0 l/m2 in 6 Std. -
Sa, 19.01. 7:00 0.0 l/m2 in 12 Std. -
Sa, 19.01. 1:00 0.0 l/m2 in 6 Std. -
Fr, 18.01. 19:00 0.1 l/m2 in 12 Std. Schnee
Fr, 18.01. 13:00 0.1 l/m2 in 6 Std. Schnee
Fr, 18.01. 7:00 1 l/m2 in 12 Std. Schnee, Sprühregen
Fr, 18.01. 1:00 1 l/m2 in 6 Std. Schnee, Regen
Ortszeit Niederschlagsmenge Niederschlagsart
Sa, 19.01. 21:30 0.0 l/m2 in 1 Std. -
Sa, 19.01. 21:20 keine Meldung -
Sa, 19.01. 21:10 keine Meldung -
Sa, 19.01. 21:00 0.0 l/m2 in 1 Std. -
Sa, 19.01. 20:50 keine Meldung -
Sa, 19.01. 20:40 keine Meldung -
Sa, 19.01. 20:30 0.0 l/m2 in 1 Std. -
Sa, 19.01. 20:00 0.0 l/m2 in 1 Std. -
Sa, 19.01. 19:30 0.0 l/m2 in 1 Std. -
Sa, 19.01. 19:00 0.0 l/m2 in 1 Std. -
Sa, 19.01. 18:30 0.0 l/m2 in 1 Std. -
Ortszeit Stärke Spitze Richtung
km/h Bft. km/h Grad Sektor
Sa, 19.01. 19:00 4 1 14 140° SO
Sa, 19.01. 13:00 7 2 18 190° S
Sa, 19.01. 7:00 6 1 24 100° O
Sa, 19.01. 1:00 13 3 24 90° O
Fr, 18.01. 19:00 7 2 11 90° O
Fr, 18.01. 13:00 0 0 18 - -
Fr, 18.01. 7:00 11 2 40 300° NW
Fr, 18.01. 1:00 22 4 43 290° W
Ortszeit Stärke Spitze Richtung
km/h Bft. km/h Grad Sektor
Sa, 19.01. 21:30 6 1 13 190° S
Sa, 19.01. 21:20 6 1 - 190° S
Sa, 19.01. 21:10 7 2 - 180° S
Sa, 19.01. 21:00 7 2 14 180° S
Sa, 19.01. 20:50 7 2 - 180° S
Sa, 19.01. 20:40 4 1 - 180° S
Sa, 19.01. 20:30 4 1 7 340° N
Sa, 19.01. 20:00 6 1 11 100° O
Sa, 19.01. 19:30 4 1 7 100° O
Sa, 19.01. 19:00 4 1 11 140° SO
Sa, 19.01. 18:30 4 1 7 160° S
Ortszeit Untergrenze Bedeckung Gattung
total tief tief mittel hoch
Sa, 19.01. 19:00 30 m 8/8 8/8 - - -
Sa, 19.01. 13:00 90 m 8/8 8/8 - - -
Sa, 19.01. 7:00 60 m 8/8 8/8 - - -
Sa, 19.01. 1:00 90 m 8/8 4/8 - - -
Fr, 18.01. 19:00 3900 m 8/8 8/8 - - -
Fr, 18.01. 13:00 360 m 8/8 8/8 - - -
Fr, 18.01. 7:00 180 m 7/8 6/8 - - -
Fr, 18.01. 1:00 60 m 8/8 8/8 - - -
Ortszeit Bedeckungsgrad in Achtel und Wolkenuntergrenze
Sa, 19.01. 21:30 8(<30m)
Sa, 19.01. 21:20 8(<30m)
Sa, 19.01. 21:10 8(<30m)
Sa, 19.01. 21:00 8(<30m)
Sa, 19.01. 20:50 8(<30m)
Sa, 19.01. 20:40 8(30m)
Sa, 19.01. 20:30 8(30m)
Sa, 19.01. 20:00 7(30m)
Sa, 19.01. 19:30 7(30m)
Sa, 19.01. 19:00 8(30m)
Sa, 19.01. 18:30 8(60m)
Ortszeit Stationsdruck (hPa) Tendenz (hPa in 3 Std.)
Sa, 19.01. 19:00 907 - 0,4
Sa, 19.01. 13:00 908 - 0,6
Sa, 19.01. 7:00 909 - 0,8
Sa, 19.01. 1:00 910 - 0,7
Fr, 18.01. 19:00 912 - 0,5
Fr, 18.01. 13:00 913 - 0,3
Fr, 18.01. 7:00 911 + 1,5
Fr, 18.01. 1:00 908 + 1,6
Ortszeit Stationsdruck (hPa) Tendenz (hPa in 3 Std.)
Sa, 19.01. 21:30 907 - 0,1
Sa, 19.01. 21:20 907 keine Meldung
Sa, 19.01. 21:10 907 keine Meldung
Sa, 19.01. 21:00 907 - 0,2
Sa, 19.01. 20:50 907 keine Meldung
Sa, 19.01. 20:40 907 keine Meldung
Sa, 19.01. 20:30 907 - 0,2
Sa, 19.01. 20:00 907 - 0,2
Sa, 19.01. 19:30 907 - 0,3
Sa, 19.01. 19:00 907 - 0,4
Sa, 19.01. 18:30 907 - 0,5
Ortszeit Schneehöhe (cm)
Sa, 19.01. 19:00 26
Sa, 19.01. 13:00 26
Sa, 19.01. 7:00 26
Sa, 19.01. 1:00 26
Fr, 18.01. 19:00 26
Fr, 18.01. 13:00 27
Fr, 18.01. 7:00 27
Fr, 18.01. 1:00 28
Ortszeit Schneehöhe (cm)
Sa, 19.01. 21:30 25
Sa, 19.01. 21:20 25
Sa, 19.01. 21:10 25
Sa, 19.01. 21:00 25
Sa, 19.01. 20:50 25
Sa, 19.01. 20:40 25
Sa, 19.01. 20:30 25
Sa, 19.01. 20:00 26
Sa, 19.01. 19:30 26
Sa, 19.01. 19:00 26
Sa, 19.01. 18:30 26
Link zu dieser Seite / Seite empfehlen

Das Wetter in ...